sensor_id;sensor_type;location;lat;lon;timestamp;temperature;humidity
65826;DHT22;52586;-43.152;172.732;2023-11-19T00:01:44;22.20;47.60
65826;DHT22;52586;-43.152;172.732;2023-11-19T00:04:16;22.20;47.60
65826;DHT22;52586;-43.152;172.732;2023-11-19T00:06:47;22.20;47.60
65826;DHT22;52586;-43.152;172.732;2023-11-19T00:09:18;22.20;47.60
65826;DHT22;52586;-43.152;172.732;2023-11-19T00:11:48;22.30;47.70
65826;DHT22;52586;-43.152;172.732;2023-11-19T00:14:19;22.30;47.70
65826;DHT22;52586;-43.152;172.732;2023-11-19T00:16:49;22.30;47.60
65826;DHT22;52586;-43.152;172.732;2023-11-19T00:19:23;22.40;47.60
65826;DHT22;52586;-43.152;172.732;2023-11-19T00:21:57;22.40;47.60
65826;DHT22;52586;-43.152;172.732;2023-11-19T00:24:30;22.50;47.60
65826;DHT22;52586;-43.152;172.732;2023-11-19T00:27:01;22.50;47.50
65826;DHT22;52586;-43.152;172.732;2023-11-19T00:29:31;22.50;47.50
65826;DHT22;52586;-43.152;172.732;2023-11-19T00:32:02;22.60;47.50
65826;DHT22;52586;-43.152;172.732;2023-11-19T00:34:35;22.60;47.40
65826;DHT22;52586;-43.152;172.732;2023-11-19T00:37:05;22.60;47.40
65826;DHT22;52586;-43.152;172.732;2023-11-19T00:39:37;22.70;47.40
65826;DHT22;52586;-43.152;172.732;2023-11-19T00:42:07;22.70;47.40
65826;DHT22;52586;-43.152;172.732;2023-11-19T00:44:38;22.70;47.40
65826;DHT22;52586;-43.152;172.732;2023-11-19T00:47:09;22.70;47.40
65826;DHT22;52586;-43.152;172.732;2023-11-19T00:49:42;22.80;47.50
65826;DHT22;52586;-43.152;172.732;2023-11-19T00:52:12;22.80;47.50
65826;DHT22;52586;-43.152;172.732;2023-11-19T00:54:43;22.90;47.50
65826;DHT22;52586;-43.152;172.732;2023-11-19T00:57:14;22.90;47.50
65826;DHT22;52586;-43.152;172.732;2023-11-19T00:59:44;22.90;47.60
65826;DHT22;52586;-43.152;172.732;2023-11-19T01:02:15;22.90;47.60
65826;DHT22;52586;-43.152;172.732;2023-11-19T01:04:47;22.90;47.50
65826;DHT22;52586;-43.152;172.732;2023-11-19T01:07:18;23.00;47.50
65826;DHT22;52586;-43.152;172.732;2023-11-19T01:09:49;23.00;47.40
65826;DHT22;52586;-43.152;172.732;2023-11-19T01:12:20;23.00;47.40
65826;DHT22;52586;-43.152;172.732;2023-11-19T01:14:51;23.10;47.50
65826;DHT22;52586;-43.152;172.732;2023-11-19T01:17:24;23.10;47.40
65826;DHT22;52586;-43.152;172.732;2023-11-19T01:19:57;23.10;47.40
65826;DHT22;52586;-43.152;172.732;2023-11-19T01:22:27;23.20;47.50
65826;DHT22;52586;-43.152;172.732;2023-11-19T01:24:58;23.20;47.40
65826;DHT22;52586;-43.152;172.732;2023-11-19T01:27:29;23.30;47.40
65826;DHT22;52586;-43.152;172.732;2023-11-19T01:29:59;23.30;47.50
65826;DHT22;52586;-43.152;172.732;2023-11-19T01:32:32;23.30;47.40
65826;DHT22;52586;-43.152;172.732;2023-11-19T01:35:06;23.40;47.40
65826;DHT22;52586;-43.152;172.732;2023-11-19T01:37:37;23.40;47.40
65826;DHT22;52586;-43.152;172.732;2023-11-19T01:40:08;23.40;47.50
65826;DHT22;52586;-43.152;172.732;2023-11-19T01:42:39;23.40;47.50
65826;DHT22;52586;-43.152;172.732;2023-11-19T01:45:10;23.40;47.60
65826;DHT22;52586;-43.152;172.732;2023-11-19T01:47:55;23.40;47.60
65826;DHT22;52586;-43.152;172.732;2023-11-19T01:50:28;23.50;47.70
65826;DHT22;52586;-43.152;172.732;2023-11-19T01:52:59;23.50;47.60
65826;DHT22;52586;-43.152;172.732;2023-11-19T01:55:30;23.50;47.50
65826;DHT22;52586;-43.152;172.732;2023-11-19T01:58:01;23.60;47.40
65826;DHT22;52586;-43.152;172.732;2023-11-19T02:00:32;23.60;47.30
65826;DHT22;52586;-43.152;172.732;2023-11-19T02:03:03;23.60;47.30
65826;DHT22;52586;-43.152;172.732;2023-11-19T02:05:36;23.70;47.30
65826;DHT22;52586;-43.152;172.732;2023-11-19T02:08:07;23.70;47.30
65826;DHT22;52586;-43.152;172.732;2023-11-19T02:10:38;23.70;47.20
65826;DHT22;52586;-43.152;172.732;2023-11-19T02:13:09;23.80;47.30
65826;DHT22;52586;-43.152;172.732;2023-11-19T02:15:41;23.80;47.20
65826;DHT22;52586;-43.152;172.732;2023-11-19T02:18:29;23.80;47.20
65826;DHT22;52586;-43.152;172.732;2023-11-19T02:21:02;23.80;47.20
65826;DHT22;52586;-43.152;172.732;2023-11-19T02:23:33;23.90;47.20
65826;DHT22;52586;-43.152;172.732;2023-11-19T02:26:13;23.90;47.20
65826;DHT22;52586;-43.152;172.732;2023-11-19T02:28:47;23.90;47.20
65826;DHT22;52586;-43.152;172.732;2023-11-19T02:31:18;24.00;47.20
65826;DHT22;52586;-43.152;172.732;2023-11-19T02:33:48;24.00;47.20
65826;DHT22;52586;-43.152;172.732;2023-11-19T02:36:19;24.00;47.10
65826;DHT22;52586;-43.152;172.732;2023-11-19T02:38:50;24.00;47.10
65826;DHT22;52586;-43.152;172.732;2023-11-19T02:41:21;24.00;47.00
65826;DHT22;52586;-43.152;172.732;2023-11-19T02:43:53;24.10;46.90
65826;DHT22;52586;-43.152;172.732;2023-11-19T02:46:24;24.10;46.90
65826;DHT22;52586;-43.152;172.732;2023-11-19T02:48:55;24.10;46.90
65826;DHT22;52586;-43.152;172.732;2023-11-19T02:51:26;24.20;46.90
65826;DHT22;52586;-43.152;172.732;2023-11-19T02:53:58;24.20;46.80
65826;DHT22;52586;-43.152;172.732;2023-11-19T02:56:28;24.20;46.80
65826;DHT22;52586;-43.152;172.732;2023-11-19T02:59:04;24.30;46.80
65826;DHT22;52586;-43.152;172.732;2023-11-19T03:01:36;24.30;46.80
65826;DHT22;52586;-43.152;172.732;2023-11-19T03:04:11;24.30;46.80
65826;DHT22;52586;-43.152;172.732;2023-11-19T03:06:44;24.30;46.80
65826;DHT22;52586;-43.152;172.732;2023-11-19T03:09:15;24.40;46.80
65826;DHT22;52586;-43.152;172.732;2023-11-19T03:11:45;24.40;46.80
65826;DHT22;52586;-43.152;172.732;2023-11-19T03:14:18;24.40;46.70
65826;DHT22;52586;-43.152;172.732;2023-11-19T03:16:50;24.50;46.80
65826;DHT22;52586;-43.152;172.732;2023-11-19T03:19:21;24.50;46.80
65826;DHT22;52586;-43.152;172.732;2023-11-19T03:21:51;24.50;46.70
65826;DHT22;52586;-43.152;172.732;2023-11-19T03:24:22;24.50;46.70
65826;DHT22;52586;-43.152;172.732;2023-11-19T03:26:53;24.50;46.70
65826;DHT22;52586;-43.152;172.732;2023-11-19T03:29:25;24.60;47.30
65826;DHT22;52586;-43.152;172.732;2023-11-19T03:31:56;24.60;46.60
65826;DHT22;52586;-43.152;172.732;2023-11-19T03:34:27;24.60;46.70
65826;DHT22;52586;-43.152;172.732;2023-11-19T03:36:57;24.70;46.60
65826;DHT22;52586;-43.152;172.732;2023-11-19T03:39:29;24.70;46.60
65826;DHT22;52586;-43.152;172.732;2023-11-19T03:42:00;24.70;46.50
65826;DHT22;52586;-43.152;172.732;2023-11-19T03:44:33;24.70;46.50
65826;DHT22;52586;-43.152;172.732;2023-11-19T03:47:03;24.80;46.40
65826;DHT22;52586;-43.152;172.732;2023-11-19T03:49:34;24.80;46.40
65826;DHT22;52586;-43.152;172.732;2023-11-19T03:52:05;24.80;46.40
65826;DHT22;52586;-43.152;172.732;2023-11-19T03:54:37;24.90;46.40
65826;DHT22;52586;-43.152;172.732;2023-11-19T03:57:07;24.90;46.30
65826;DHT22;52586;-43.152;172.732;2023-11-19T03:59:41;24.90;46.30
65826;DHT22;52586;-43.152;172.732;2023-11-19T04:02:12;24.90;46.30
65826;DHT22;52586;-43.152;172.732;2023-11-19T04:04:42;25.00;46.30
65826;DHT22;52586;-43.152;172.732;2023-11-19T04:07:13;25.00;46.30
65826;DHT22;52586;-43.152;172.732;2023-11-19T04:09:44;25.00;46.20
65826;DHT22;52586;-43.152;172.732;2023-11-19T04:12:15;25.00;46.20
65826;DHT22;52586;-43.152;172.732;2023-11-19T04:14:47;25.00;46.20
65826;DHT22;52586;-43.152;172.732;2023-11-19T04:17:18;25.10;46.30
65826;DHT22;52586;-43.152;172.732;2023-11-19T04:19:48;25.10;46.30
65826;DHT22;52586;-43.152;172.732;2023-11-19T04:22:19;25.10;46.30
65826;DHT22;52586;-43.152;172.732;2023-11-19T04:24:50;25.10;46.30
65826;DHT22;52586;-43.152;172.732;2023-11-19T04:27:20;25.10;46.30
65826;DHT22;52586;-43.152;172.732;2023-11-19T04:29:53;25.20;46.30
65826;DHT22;52586;-43.152;172.732;2023-11-19T04:32:24;25.20;46.20
65826;DHT22;52586;-43.152;172.732;2023-11-19T04:34:55;25.20;46.20
65826;DHT22;52586;-43.152;172.732;2023-11-19T04:37:25;25.30;46.10
65826;DHT22;52586;-43.152;172.732;2023-11-19T04:39:56;25.30;46.10
65826;DHT22;52586;-43.152;172.732;2023-11-19T04:42:27;25.30;46.00
65826;DHT22;52586;-43.152;172.732;2023-11-19T04:45:00;25.30;46.10
65826;DHT22;52586;-43.152;172.732;2023-11-19T04:47:30;25.30;46.00
65826;DHT22;52586;-43.152;172.732;2023-11-19T04:50:02;25.30;46.00
65826;DHT22;52586;-43.152;172.732;2023-11-19T04:52:32;25.30;46.00
65826;DHT22;52586;-43.152;172.732;2023-11-19T04:55:03;25.30;46.00
65826;DHT22;52586;-43.152;172.732;2023-11-19T04:57:34;25.40;46.00
65826;DHT22;52586;-43.152;172.732;2023-11-19T05:00:07;25.40;46.10
65826;DHT22;52586;-43.152;172.732;2023-11-19T05:02:38;25.40;46.00
65826;DHT22;52586;-43.152;172.732;2023-11-19T05:05:09;25.40;46.10
65826;DHT22;52586;-43.152;172.732;2023-11-19T05:07:40;25.40;46.00
65826;DHT22;52586;-43.152;172.732;2023-11-19T05:10:11;25.40;46.00
65826;DHT22;52586;-43.152;172.732;2023-11-19T05:12:41;25.40;46.00
65826;DHT22;52586;-43.152;172.732;2023-11-19T05:15:14;25.40;46.00
65826;DHT22;52586;-43.152;172.732;2023-11-19T05:17:45;25.40;46.00
65826;DHT22;52586;-43.152;172.732;2023-11-19T05:20:15;25.50;46.10
65826;DHT22;52586;-43.152;172.732;2023-11-19T05:22:46;25.50;46.10
65826;DHT22;52586;-43.152;172.732;2023-11-19T05:25:16;25.50;46.10
65826;DHT22;52586;-43.152;172.732;2023-11-19T05:27:47;25.50;46.00
65826;DHT22;52586;-43.152;172.732;2023-11-19T05:30:20;25.50;46.00
65826;DHT22;52586;-43.152;172.732;2023-11-19T05:32:50;25.50;46.00
65826;DHT22;52586;-43.152;172.732;2023-11-19T05:35:21;25.50;45.90
65826;DHT22;52586;-43.152;172.732;2023-11-19T05:37:52;25.50;45.90
65826;DHT22;52586;-43.152;172.732;2023-11-19T05:40:23;25.50;45.90
65826;DHT22;52586;-43.152;172.732;2023-11-19T05:42:57;25.50;45.90
65826;DHT22;52586;-43.152;172.732;2023-11-19T05:45:29;25.50;45.90
65826;DHT22;52586;-43.152;172.732;2023-11-19T05:48:00;25.50;45.80
65826;DHT22;52586;-43.152;172.732;2023-11-19T05:50:32;25.50;45.90
65826;DHT22;52586;-43.152;172.732;2023-11-19T05:53:02;25.50;45.90
65826;DHT22;52586;-43.152;172.732;2023-11-19T05:55:36;25.50;45.90
65826;DHT22;52586;-43.152;172.732;2023-11-19T05:58:14;25.50;46.00
65826;DHT22;52586;-43.152;172.732;2023-11-19T06:00:48;25.50;45.90
65826;DHT22;52586;-43.152;172.732;2023-11-19T06:03:18;25.50;45.90
65826;DHT22;52586;-43.152;172.732;2023-11-19T06:05:49;25.50;45.80
65826;DHT22;52586;-43.152;172.732;2023-11-19T06:08:20;25.50;45.70
65826;DHT22;52586;-43.152;172.732;2023-11-19T06:10:51;25.50;45.80
65826;DHT22;52586;-43.152;172.732;2023-11-19T06:13:24;25.50;45.80
65826;DHT22;52586;-43.152;172.732;2023-11-19T06:15:56;25.50;45.90
65826;DHT22;52586;-43.152;172.732;2023-11-19T06:18:27;25.40;45.80
65826;DHT22;52586;-43.152;172.732;2023-11-19T06:20:59;25.40;45.90
65826;DHT22;52586;-43.152;172.732;2023-11-19T06:23:29;25.40;45.90
65826;DHT22;52586;-43.152;172.732;2023-11-19T06:26:00;25.40;46.00
65826;DHT22;52586;-43.152;172.732;2023-11-19T06:28:31;25.40;46.00
65826;DHT22;52586;-43.152;172.732;2023-11-19T06:31:04;25.40;46.00
65826;DHT22;52586;-43.152;172.732;2023-11-19T06:33:35;25.40;46.00
65826;DHT22;52586;-43.152;172.732;2023-11-19T06:36:06;25.30;45.90
65826;DHT22;52586;-43.152;172.732;2023-11-19T06:38:37;25.30;45.90
65826;DHT22;52586;-43.152;172.732;2023-11-19T06:41:09;25.30;45.90
65826;DHT22;52586;-43.152;172.732;2023-11-19T06:43:40;25.30;45.90
65826;DHT22;52586;-43.152;172.732;2023-11-19T06:46:18;25.30;45.80
65826;DHT22;52586;-43.152;172.732;2023-11-19T06:48:49;25.30;45.90
65826;DHT22;52586;-43.152;172.732;2023-11-19T06:51:19;25.30;45.80
65826;DHT22;52586;-43.152;172.732;2023-11-19T06:53:50;25.30;45.80
65826;DHT22;52586;-43.152;172.732;2023-11-19T06:56:21;25.30;45.90
65826;DHT22;52586;-43.152;172.732;2023-11-19T06:58:52;25.30;45.80
65826;DHT22;52586;-43.152;172.732;2023-11-19T07:01:25;25.30;45.80
65826;DHT22;52586;-43.152;172.732;2023-11-19T07:03:56;25.20;45.80
65826;DHT22;52586;-43.152;172.732;2023-11-19T07:06:29;25.20;45.80
65826;DHT22;52586;-43.152;172.732;2023-11-19T07:09:00;25.20;45.80
65826;DHT22;52586;-43.152;172.732;2023-11-19T07:11:37;25.20;45.80
65826;DHT22;52586;-43.152;172.732;2023-11-19T07:14:08;25.10;45.70
65826;DHT22;52586;-43.152;172.732;2023-11-19T07:16:40;25.10;46.40
65826;DHT22;52586;-43.152;172.732;2023-11-19T07:19:11;25.10;45.70
65826;DHT22;52586;-43.152;172.732;2023-11-19T07:21:42;25.10;45.70
65826;DHT22;52586;-43.152;172.732;2023-11-19T07:24:13;25.10;45.80
65826;DHT22;52586;-43.152;172.732;2023-11-19T07:26:45;25.00;45.70
65826;DHT22;52586;-43.152;172.732;2023-11-19T07:29:16;25.00;45.70
65826;DHT22;52586;-43.152;172.732;2023-11-19T07:31:49;25.00;45.80
65826;DHT22;52586;-43.152;172.732;2023-11-19T07:34:20;25.00;45.80
65826;DHT22;52586;-43.152;172.732;2023-11-19T07:36:51;25.00;45.90
65826;DHT22;52586;-43.152;172.732;2023-11-19T07:39:21;24.90;45.90
65826;DHT22;52586;-43.152;172.732;2023-11-19T07:41:52;24.90;45.90
65826;DHT22;52586;-43.152;172.732;2023-11-19T07:44:23;24.90;46.50
65826;DHT22;52586;-43.152;172.732;2023-11-19T07:46:56;24.90;45.90
65826;DHT22;52586;-43.152;172.732;2023-11-19T07:49:26;24.90;45.90
65826;DHT22;52586;-43.152;172.732;2023-11-19T07:51:58;24.90;45.90
65826;DHT22;52586;-43.152;172.732;2023-11-19T07:54:30;24.90;45.90
65826;DHT22;52586;-43.152;172.732;2023-11-19T07:57:01;24.90;45.90
65826;DHT22;52586;-43.152;172.732;2023-11-19T07:59:31;24.90;45.90
65826;DHT22;52586;-43.152;172.732;2023-11-19T08:02:04;24.80;45.90
65826;DHT22;52586;-43.152;172.732;2023-11-19T08:04:35;24.80;45.90
65826;DHT22;52586;-43.152;172.732;2023-11-19T08:07:07;24.80;46.00
65826;DHT22;52586;-43.152;172.732;2023-11-19T08:09:38;24.70;46.00
65826;DHT22;52586;-43.152;172.732;2023-11-19T08:12:09;24.70;46.00
65826;DHT22;52586;-43.152;172.732;2023-11-19T08:14:41;24.70;46.00
65826;DHT22;52586;-43.152;172.732;2023-11-19T08:17:14;24.70;46.00
65826;DHT22;52586;-43.152;172.732;2023-11-19T08:19:44;24.70;46.10
65826;DHT22;52586;-43.152;172.732;2023-11-19T08:22:15;24.60;46.00
65826;DHT22;52586;-43.152;172.732;2023-11-19T08:24:46;24.60;46.10
65826;DHT22;52586;-43.152;172.732;2023-11-19T08:27:17;24.60;46.10
65826;DHT22;52586;-43.152;172.732;2023-11-19T08:29:54;24.60;46.10
65826;DHT22;52586;-43.152;172.732;2023-11-19T08:32:28;24.60;46.10
65826;DHT22;52586;-43.152;172.732;2023-11-19T08:34:59;24.50;46.00
65826;DHT22;52586;-43.152;172.732;2023-11-19T08:37:29;24.50;46.10
65826;DHT22;52586;-43.152;172.732;2023-11-19T08:40:00;24.50;46.60
65826;DHT22;52586;-43.152;172.732;2023-11-19T08:42:31;24.50;46.10
65826;DHT22;52586;-43.152;172.732;2023-11-19T08:45:02;24.50;46.10
65826;DHT22;52586;-43.152;172.732;2023-11-19T08:47:35;24.50;46.10
65826;DHT22;52586;-43.152;172.732;2023-11-19T08:50:06;24.50;46.20
65826;DHT22;52586;-43.152;172.732;2023-11-19T08:52:38;24.40;46.10
65826;DHT22;52586;-43.152;172.732;2023-11-19T08:55:08;24.40;46.10
65826;DHT22;52586;-43.152;172.732;2023-11-19T08:57:41;24.40;46.20
65826;DHT22;52586;-43.152;172.732;2023-11-19T09:00:13;24.40;46.20
65826;DHT22;52586;-43.152;172.732;2023-11-19T09:02:45;24.40;46.20
65826;DHT22;52586;-43.152;172.732;2023-11-19T09:05:16;24.30;46.20
65826;DHT22;52586;-43.152;172.732;2023-11-19T09:07:47;24.30;46.20
65826;DHT22;52586;-43.152;172.732;2023-11-19T09:10:18;24.30;46.20
65826;DHT22;52586;-43.152;172.732;2023-11-19T09:12:49;24.30;46.20
65826;DHT22;52586;-43.152;172.732;2023-11-19T09:15:19;24.30;46.30
65826;DHT22;52586;-43.152;172.732;2023-11-19T09:17:52;24.30;46.30
65826;DHT22;52586;-43.152;172.732;2023-11-19T09:20:22;24.30;46.30
65826;DHT22;52586;-43.152;172.732;2023-11-19T09:22:53;24.30;46.30
65826;DHT22;52586;-43.152;172.732;2023-11-19T09:25:24;24.20;46.20
65826;DHT22;52586;-43.152;172.732;2023-11-19T09:27:54;24.20;46.20
65826;DHT22;52586;-43.152;172.732;2023-11-19T09:30:26;24.20;46.20
65826;DHT22;52586;-43.152;172.732;2023-11-19T09:32:59;24.20;46.20
65826;DHT22;52586;-43.152;172.732;2023-11-19T09:35:29;24.20;46.30
65826;DHT22;52586;-43.152;172.732;2023-11-19T09:38:00;24.20;46.30
65826;DHT22;52586;-43.152;172.732;2023-11-19T09:40:33;24.10;46.20
65826;DHT22;52586;-43.152;172.732;2023-11-19T09:43:03;24.10;46.30
65826;DHT22;52586;-43.152;172.732;2023-11-19T09:45:42;24.10;46.30
65826;DHT22;52586;-43.152;172.732;2023-11-19T09:48:17;24.10;46.30
65826;DHT22;52586;-43.152;172.732;2023-11-19T09:50:48;24.00;46.30
65826;DHT22;52586;-43.152;172.732;2023-11-19T09:53:21;24.00;46.30
65826;DHT22;52586;-43.152;172.732;2023-11-19T09:55:52;24.00;46.30
65826;DHT22;52586;-43.152;172.732;2023-11-19T09:58:23;24.00;46.40
65826;DHT22;52586;-43.152;172.732;2023-11-19T10:00:54;24.00;46.30
65826;DHT22;52586;-43.152;172.732;2023-11-19T10:03:28;24.00;46.40
65826;DHT22;52586;-43.152;172.732;2023-11-19T10:06:01;24.00;46.40
65826;DHT22;52586;-43.152;172.732;2023-11-19T10:08:31;24.00;46.40
65826;DHT22;52586;-43.152;172.732;2023-11-19T10:11:02;24.00;46.30
65826;DHT22;52586;-43.152;172.732;2023-11-19T10:13:33;24.00;46.30
65826;DHT22;52586;-43.152;172.732;2023-11-19T10:16:07;23.90;46.30
65826;DHT22;52586;-43.152;172.732;2023-11-19T10:18:45;23.90;46.30
65826;DHT22;52586;-43.152;172.732;2023-11-19T10:21:17;23.90;46.40
65826;DHT22;52586;-43.152;172.732;2023-11-19T10:23:51;23.80;46.30
65826;DHT22;52586;-43.152;172.732;2023-11-19T10:26:22;23.90;46.40
65826;DHT22;52586;-43.152;172.732;2023-11-19T10:28:53;23.80;46.40
65826;DHT22;52586;-43.152;172.732;2023-11-19T10:31:25;23.80;46.40
65826;DHT22;52586;-43.152;172.732;2023-11-19T10:33:58;23.80;46.40
65826;DHT22;52586;-43.152;172.732;2023-11-19T10:36:39;23.80;46.40
65826;DHT22;52586;-43.152;172.732;2023-11-19T10:39:11;23.80;46.50
65826;DHT22;52586;-43.152;172.732;2023-11-19T10:41:42;23.80;46.50
65826;DHT22;52586;-43.152;172.732;2023-11-19T10:44:12;23.70;46.40
65826;DHT22;52586;-43.152;172.732;2023-11-19T10:47:01;23.70;46.50
65826;DHT22;52586;-43.152;172.732;2023-11-19T10:49:34;23.70;46.50
65826;DHT22;52586;-43.152;172.732;2023-11-19T10:52:06;23.70;46.50
65826;DHT22;52586;-43.152;172.732;2023-11-19T10:54:40;23.70;46.50
65826;DHT22;52586;-43.152;172.732;2023-11-19T10:57:20;23.70;46.50
65826;DHT22;52586;-43.152;172.732;2023-11-19T10:59:54;23.60;46.50
65826;DHT22;52586;-43.152;172.732;2023-11-19T11:02:27;23.70;46.50
65826;DHT22;52586;-43.152;172.732;2023-11-19T11:05:00;23.60;46.50
65826;DHT22;52586;-43.152;172.732;2023-11-19T11:07:32;23.60;46.50
65826;DHT22;52586;-43.152;172.732;2023-11-19T11:10:03;23.60;46.50
65826;DHT22;52586;-43.152;172.732;2023-11-19T11:12:37;23.60;46.50
65826;DHT22;52586;-43.152;172.732;2023-11-19T11:15:11;23.50;46.50
65826;DHT22;52586;-43.152;172.732;2023-11-19T11:17:42;23.60;46.50
65826;DHT22;52586;-43.152;172.732;2023-11-19T11:20:16;23.50;46.50
65826;DHT22;52586;-43.152;172.732;2023-11-19T11:22:54;23.50;46.50
65826;DHT22;52586;-43.152;172.732;2023-11-19T11:25:36;23.50;46.60
65826;DHT22;52586;-43.152;172.732;2023-11-19T11:28:27;23.50;46.60
65826;DHT22;52586;-43.152;172.732;2023-11-19T11:31:15;23.40;46.60
65826;DHT22;52586;-43.152;172.732;2023-11-19T11:37:06;23.40;46.60
65826;DHT22;52586;-43.152;172.732;2023-11-19T11:39:38;23.40;46.60
65826;DHT22;52586;-43.152;172.732;2023-11-19T11:42:34;23.40;46.60
65826;DHT22;52586;-43.152;172.732;2023-11-19T11:45:06;23.40;46.70
65826;DHT22;52586;-43.152;172.732;2023-11-19T11:48:09;23.40;46.60
65826;DHT22;52586;-43.152;172.732;2023-11-19T11:50:53;23.30;46.60
65826;DHT22;52586;-43.152;172.732;2023-11-19T11:53:26;23.40;46.60
65826;DHT22;52586;-43.152;172.732;2023-11-19T11:55:58;23.40;46.60
65826;DHT22;52586;-43.152;172.732;2023-11-19T11:58:32;23.30;46.60
65826;DHT22;52586;-43.152;172.732;2023-11-19T12:01:05;23.30;46.60
65826;DHT22;52586;-43.152;172.732;2023-11-19T12:03:37;23.30;46.60
65826;DHT22;52586;-43.152;172.732;2023-11-19T12:06:08;23.30;46.70
65826;DHT22;52586;-43.152;172.732;2023-11-19T12:08:40;23.30;46.70
65826;DHT22;52586;-43.152;172.732;2023-11-19T12:11:11;23.30;46.70
65826;DHT22;52586;-43.152;172.732;2023-11-19T12:13:55;23.20;46.70
65826;DHT22;52586;-43.152;172.732;2023-11-19T12:16:30;23.30;46.70
65826;DHT22;52586;-43.152;172.732;2023-11-19T12:19:05;23.30;46.70
65826;DHT22;52586;-43.152;172.732;2023-11-19T12:21:36;23.20;46.70
65826;DHT22;52586;-43.152;172.732;2023-11-19T12:24:09;23.20;46.70
65826;DHT22;52586;-43.152;172.732;2023-11-19T12:26:42;23.20;46.80
65826;DHT22;52586;-43.152;172.732;2023-11-19T12:29:12;23.20;46.70
65826;DHT22;52586;-43.152;172.732;2023-11-19T12:31:53;23.10;46.70
65826;DHT22;52586;-43.152;172.732;2023-11-19T12:34:23;23.10;46.70
65826;DHT22;52586;-43.152;172.732;2023-11-19T12:36:54;23.10;46.60
65826;DHT22;52586;-43.152;172.732;2023-11-19T12:39:30;23.10;46.60
65826;DHT22;52586;-43.152;172.732;2023-11-19T12:42:01;23.10;46.60
65826;DHT22;52586;-43.152;172.732;2023-11-19T12:44:33;23.10;46.70
65826;DHT22;52586;-43.152;172.732;2023-11-19T12:47:05;23.10;46.70
65826;DHT22;52586;-43.152;172.732;2023-11-19T12:49:35;23.10;46.60
65826;DHT22;52586;-43.152;172.732;2023-11-19T12:52:13;23.10;46.70
65826;DHT22;52586;-43.152;172.732;2023-11-19T12:54:46;23.10;46.70
65826;DHT22;52586;-43.152;172.732;2023-11-19T12:57:17;23.10;46.70
65826;DHT22;52586;-43.152;172.732;2023-11-19T12:59:57;23.10;46.80
65826;DHT22;52586;-43.152;172.732;2023-11-19T13:02:45;23.00;46.80
65826;DHT22;52586;-43.152;172.732;2023-11-19T13:05:27;23.00;46.80
65826;DHT22;52586;-43.152;172.732;2023-11-19T13:08:02;23.00;46.70
65826;DHT22;52586;-43.152;172.732;2023-11-19T13:10:50;23.00;46.80
65826;DHT22;52586;-43.152;172.732;2023-11-19T13:13:21;23.00;46.80
65826;DHT22;52586;-43.152;172.732;2023-11-19T13:15:52;23.00;46.80
65826;DHT22;52586;-43.152;172.732;2023-11-19T13:18:23;23.00;46.80
65826;DHT22;52586;-43.152;172.732;2023-11-19T13:20:53;23.00;46.80
65826;DHT22;52586;-43.152;172.732;2023-11-19T13:23:29;22.90;46.70
65826;DHT22;52586;-43.152;172.732;2023-11-19T13:26:01;22.90;46.70
65826;DHT22;52586;-43.152;172.732;2023-11-19T13:28:32;22.90;46.70
65826;DHT22;52586;-43.152;172.732;2023-11-19T13:31:02;22.90;46.70
65826;DHT22;52586;-43.152;172.732;2023-11-19T13:33:33;22.90;46.70
65826;DHT22;52586;-43.152;172.732;2023-11-19T13:36:04;22.90;46.70
65826;DHT22;52586;-43.152;172.732;2023-11-19T13:38:35;22.90;46.80
65826;DHT22;52586;-43.152;172.732;2023-11-19T13:41:08;22.90;46.80
65826;DHT22;52586;-43.152;172.732;2023-11-19T13:43:39;22.80;46.80
65826;DHT22;52586;-43.152;172.732;2023-11-19T13:46:10;22.80;46.80
65826;DHT22;52586;-43.152;172.732;2023-11-19T13:48:40;22.80;46.80
65826;DHT22;52586;-43.152;172.732;2023-11-19T13:51:11;22.80;46.80
65826;DHT22;52586;-43.152;172.732;2023-11-19T13:53:41;22.80;46.80
65826;DHT22;52586;-43.152;172.732;2023-11-19T13:56:14;22.80;46.80
65826;DHT22;52586;-43.152;172.732;2023-11-19T13:58:45;22.80;46.80
65826;DHT22;52586;-43.152;172.732;2023-11-19T14:01:15;22.70;46.70
65826;DHT22;52586;-43.152;172.732;2023-11-19T14:03:46;22.70;46.80
65826;DHT22;52586;-43.152;172.732;2023-11-19T14:06:17;22.70;46.70
65826;DHT22;52586;-43.152;172.732;2023-11-19T14:08:48;22.70;46.70
65826;DHT22;52586;-43.152;172.732;2023-11-19T14:11:21;22.70;46.70
65826;DHT22;52586;-43.152;172.732;2023-11-19T14:13:51;22.70;46.70
65826;DHT22;52586;-43.152;172.732;2023-11-19T14:16:22;22.70;46.70
65826;DHT22;52586;-43.152;172.732;2023-11-19T14:18:52;22.70;46.70
65826;DHT22;52586;-43.152;172.732;2023-11-19T14:21:23;22.60;46.70
65826;DHT22;52586;-43.152;172.732;2023-11-19T14:23:54;22.60;46.70
65826;DHT22;52586;-43.152;172.732;2023-11-19T14:26:26;22.60;46.70
65826;DHT22;52586;-43.152;172.732;2023-11-19T14:28:57;22.60;46.70
65826;DHT22;52586;-43.152;172.732;2023-11-19T14:31:29;22.60;46.80
65826;DHT22;52586;-43.152;172.732;2023-11-19T14:34:00;22.60;46.80
65826;DHT22;52586;-43.152;172.732;2023-11-19T14:36:30;22.60;46.90
65826;DHT22;52586;-43.152;172.732;2023-11-19T14:39:01;22.60;46.90
65826;DHT22;52586;-43.152;172.732;2023-11-19T14:41:33;22.60;46.90
65826;DHT22;52586;-43.152;172.732;2023-11-19T14:44:04;22.60;46.90
65826;DHT22;52586;-43.152;172.732;2023-11-19T14:46:34;22.50;46.90
65826;DHT22;52586;-43.152;172.732;2023-11-19T14:49:05;22.50;46.90
65826;DHT22;52586;-43.152;172.732;2023-11-19T14:51:37;22.50;46.90
65826;DHT22;52586;-43.152;172.732;2023-11-19T14:54:08;22.50;46.80
65826;DHT22;52586;-43.152;172.732;2023-11-19T14:56:40;22.50;46.80
65826;DHT22;52586;-43.152;172.732;2023-11-19T14:59:11;22.50;46.80
65826;DHT22;52586;-43.152;172.732;2023-11-19T15:01:41;22.50;46.80
65826;DHT22;52586;-43.152;172.732;2023-11-19T15:04:12;22.50;46.80
65826;DHT22;52586;-43.152;172.732;2023-11-19T15:06:43;22.40;46.80
65826;DHT22;52586;-43.152;172.732;2023-11-19T15:09:13;22.40;46.80
65826;DHT22;52586;-43.152;172.732;2023-11-19T15:11:46;22.40;46.80
65826;DHT22;52586;-43.152;172.732;2023-11-19T15:14:16;22.40;46.80
65826;DHT22;52586;-43.152;172.732;2023-11-19T15:16:48;22.40;46.90
65826;DHT22;52586;-43.152;172.732;2023-11-19T15:19:19;22.40;46.90
65826;DHT22;52586;-43.152;172.732;2023-11-19T15:21:50;22.40;46.90